createdAt,value
2022-12-31T00:00:36.546Z,115.25
2022-12-31T00:03:39.552Z,121.13
2022-12-31T00:06:41.995Z,104.78
2022-12-31T00:09:44.471Z,121.53
2022-12-31T00:12:46.984Z,110.43
2022-12-31T00:15:49.424Z,106.32
2022-12-31T00:18:54.053Z,94.03
2022-12-31T00:21:56.437Z,92.78
2022-12-31T00:24:58.869Z,97.03
2022-12-31T00:28:03.842Z,102.60
2022-12-31T00:31:09.878Z,90.90
2022-12-31T00:34:12.384Z,88.35
2022-12-31T00:37:14.791Z,85.97
2022-12-31T00:40:17.345Z,75.97
2022-12-31T00:43:19.762Z,92.68
2022-12-31T00:46:22.354Z,72.45
2022-12-31T00:49:24.795Z,70.38
2022-12-31T00:52:27.256Z,72.38
2022-12-31T00:55:30.895Z,66.60
2022-12-31T00:58:34.388Z,60.17
2022-12-31T01:01:39.300Z,69.07
2022-12-31T01:04:41.956Z,75.47
2022-12-31T01:07:44.409Z,69.85
2022-12-31T01:11:08.722Z,69.50
2022-12-31T01:14:14.161Z,62.15
2022-12-31T01:17:17.314Z,71.28
2022-12-31T01:20:19.888Z,72.03
2022-12-31T01:23:22.285Z,62.63
2022-12-31T01:26:24.692Z,67.07
2022-12-31T01:29:27.683Z,64.70
2022-12-31T01:32:30.085Z,71.22
2022-12-31T01:35:35.354Z,77.38
2022-12-31T01:38:37.997Z,69.55
2022-12-31T01:41:43.251Z,68.30
2022-12-31T01:44:49.638Z,70.95
2022-12-31T01:47:55.465Z,73.47
2022-12-31T01:50:58.090Z,69.68
2022-12-31T01:54:02.243Z,66.55
2022-12-31T01:57:05.383Z,68.57
2022-12-31T02:00:08.327Z,70.07
2022-12-31T02:03:11.305Z,72.25
2022-12-31T02:06:23.336Z,74.60
2022-12-31T02:09:26.150Z,68.45
2022-12-31T02:12:28.613Z,63.33
2022-12-31T02:15:52.346Z,65.13
2022-12-31T02:18:59.965Z,71.80
2022-12-31T02:22:24.104Z,78.43
2022-12-31T02:25:53.462Z,83.45
2022-12-31T02:29:19.946Z,85.10
2022-12-31T02:32:32.382Z,79.70
2022-12-31T02:35:48.375Z,96.43
2022-12-31T02:38:51.448Z,83.07
2022-12-31T02:41:54.011Z,105.88
2022-12-31T02:44:56.533Z,111.53
2022-12-31T02:48:27.569Z,131.52
2022-12-31T02:51:40.200Z,149.85
2022-12-31T02:55:24.862Z,138.93
2022-12-31T02:58:51.641Z,121.40
2022-12-31T03:02:16.297Z,123.67
2022-12-31T03:05:21.733Z,173.32
2022-12-31T03:08:25.771Z,172.32
2022-12-31T03:11:46.629Z,191.50
2022-12-31T03:14:49.232Z,182.00
2022-12-31T03:17:51.581Z,200.33
2022-12-31T03:21:32.083Z,159.45
2022-12-31T03:24:52.935Z,251.40
2022-12-31T03:27:55.417Z,264.45
2022-12-31T03:31:00.502Z,231.32
2022-12-31T03:34:02.968Z,162.43
2022-12-31T03:37:05.398Z,190.38
2022-12-31T03:40:10.310Z,210.23
2022-12-31T03:43:14.447Z,199.50
2022-12-31T03:46:16.864Z,180.02
2022-12-31T03:49:19.293Z,198.20
2022-12-31T03:52:21.765Z,211.48
2022-12-31T03:55:24.687Z,225.60
2022-12-31T03:58:27.154Z,253.73
2022-12-31T04:01:29.634Z,280.50
2022-12-31T04:04:32.310Z,257.93
2022-12-31T04:07:34.725Z,199.55
2022-12-31T04:10:37.585Z,241.43
2022-12-31T04:13:39.973Z,216.55
2022-12-31T04:16:42.614Z,218.10
2022-12-31T04:19:45.242Z,213.70
2022-12-31T04:22:47.943Z,129.48
2022-12-31T04:25:50.325Z,196.38
2022-12-31T04:28:52.744Z,213.57
2022-12-31T04:31:55.191Z,216.02
2022-12-31T04:34:57.590Z,261.20
2022-12-31T04:37:59.973Z,213.57
2022-12-31T04:41:18.026Z,253.00
2022-12-31T04:44:21.085Z,162.07
2022-12-31T04:47:24.083Z,183.35
2022-12-31T04:50:26.636Z,198.77
2022-12-31T04:53:29.451Z,159.45
2022-12-31T04:56:32.353Z,195.73
2022-12-31T04:59:34.734Z,192.98
2022-12-31T05:02:37.309Z,279.38
2022-12-31T05:05:42.697Z,178.87
2022-12-31T05:08:45.331Z,188.55
2022-12-31T05:11:47.709Z,169.13
2022-12-31T05:14:51.806Z,109.93
2022-12-31T05:17:54.307Z,86.25
2022-12-31T05:20:56.808Z,87.87
2022-12-31T05:23:59.209Z,172.52
2022-12-31T05:27:02.183Z,111.40
2022-12-31T05:30:06.078Z,118.25
2022-12-31T05:33:08.842Z,132.68
2022-12-31T05:36:11.372Z,185.60
2022-12-31T05:39:13.770Z,148.00
2022-12-31T05:42:16.226Z,148.23
2022-12-31T05:45:18.810Z,178.73
2022-12-31T05:48:21.592Z,120.05
2022-12-31T05:51:24.060Z,203.50
2022-12-31T05:54:26.456Z,110.70
2022-12-31T05:57:29.027Z,225.77
2022-12-31T06:00:31.467Z,184.70
2022-12-31T06:03:33.906Z,155.25
2022-12-31T06:06:36.290Z,167.17
2022-12-31T06:09:39.125Z,191.50
2022-12-31T06:12:41.569Z,159.55
2022-12-31T06:15:44.080Z,129.50
2022-12-31T06:18:50.824Z,145.32
2022-12-31T06:21:53.277Z,154.77
2022-12-31T06:24:55.700Z,141.88
2022-12-31T06:27:58.086Z,136.02
2022-12-31T06:31:01.862Z,124.43
2022-12-31T06:34:04.345Z,135.93
2022-12-31T06:37:06.814Z,148.00
2022-12-31T06:40:09.966Z,165.82
2022-12-31T06:43:12.349Z,176.38
2022-12-31T06:46:17.720Z,176.25
2022-12-31T06:49:20.198Z,189.20
2022-12-31T06:52:22.984Z,112.60
2022-12-31T06:55:25.873Z,166.30
2022-12-31T06:58:28.765Z,117.22
2022-12-31T07:01:42.799Z,133.32
2022-12-31T07:05:22.665Z,82.20
2022-12-31T07:08:44.217Z,127.80
2022-12-31T07:12:01.399Z,66.15
2022-12-31T07:15:31.611Z,76.63
2022-12-31T07:18:44.395Z,83.40
2022-12-31T07:21:49.785Z,69.07
2022-12-31T07:24:52.705Z,97.97
2022-12-31T07:28:25.677Z,82.82
2022-12-31T07:31:43.868Z,99.13
2022-12-31T07:35:01.491Z,105.05
2022-12-31T07:38:16.997Z,91.28
2022-12-31T07:41:22.412Z,77.23
2022-12-31T07:44:43.233Z,83.70
2022-12-31T07:47:45.894Z,73.78
2022-12-31T07:50:48.790Z,69.30
2022-12-31T07:53:51.186Z,67.32
2022-12-31T07:56:53.756Z,75.23
2022-12-31T08:00:03.758Z,61.90
2022-12-31T08:03:25.056Z,57.10
2022-12-31T08:06:36.992Z,56.10
2022-12-31T08:09:42.049Z,58.17
2022-12-31T08:12:46.086Z,53.67
2022-12-31T08:15:48.805Z,47.13
2022-12-31T08:18:51.534Z,48.08
2022-12-31T08:21:59.900Z,59.15
2022-12-31T08:25:14.215Z,71.30
2022-12-31T08:28:41.268Z,51.80
2022-12-31T08:31:51.112Z,49.50
2022-12-31T08:35:14.891Z,51.90
2022-12-31T08:38:41.880Z,49.58
2022-12-31T08:41:48.510Z,47.80
2022-12-31T08:45:00.524Z,44.63
2022-12-31T08:48:21.701Z,54.33
2022-12-31T08:51:25.831Z,56.13
2022-12-31T08:54:29.077Z,65.90
2022-12-31T08:57:46.629Z,46.83
2022-12-31T09:00:50.612Z,52.33
2022-12-31T09:04:11.312Z,49.97
2022-12-31T09:07:14.142Z,49.67
2022-12-31T09:10:30.776Z,47.53
2022-12-31T09:13:49.325Z,46.95
2022-12-31T09:17:04.056Z,51.27
2022-12-31T09:20:07.380Z,50.65
2022-12-31T09:23:10.552Z,47.58
2022-12-31T09:26:34.168Z,46.97
2022-12-31T09:29:48.161Z,52.38
2022-12-31T09:33:01.397Z,42.40
2022-12-31T09:36:06.853Z,56.95
2022-12-31T09:39:15.004Z,40.70
2022-12-31T09:42:36.354Z,46.80
2022-12-31T09:45:57.502Z,43.47
2022-12-31T09:49:29.358Z,40.53
2022-12-31T09:52:50.414Z,46.78
2022-12-31T09:55:59.848Z,49.20
2022-12-31T09:59:18.951Z,59.83
2022-12-31T10:02:59.677Z,52.38
2022-12-31T10:06:20.459Z,57.73
2022-12-31T10:09:37.874Z,60.78
2022-12-31T10:12:58.252Z,45.45
2022-12-31T10:16:25.454Z,49.35
2022-12-31T10:19:46.362Z,41.97
2022-12-31T10:23:12.130Z,38.03
2022-12-31T10:26:35.855Z,37.53
2022-12-31T10:29:47.249Z,43.38
2022-12-31T10:33:16.677Z,47.40
2022-12-31T10:36:23.450Z,43.65
2022-12-31T10:39:37.078Z,45.00
2022-12-31T10:42:45.593Z,46.97
2022-12-31T10:46:05.823Z,54.70
2022-12-31T10:49:23.006Z,48.95
2022-12-31T10:52:50.370Z,57.25
2022-12-31T10:56:14.352Z,51.63
2022-12-31T10:59:22.833Z,48.03
2022-12-31T11:02:37.308Z,56.83
2022-12-31T11:06:04.085Z,50.40
2022-12-31T11:09:34.651Z,46.53
2022-12-31T11:13:08.738Z,49.63
2022-12-31T11:16:11.285Z,49.28
2022-12-31T11:19:22.091Z,44.72
2022-12-31T11:22:36.101Z,55.67
2022-12-31T11:26:00.458Z,52.08
2022-12-31T11:29:11.898Z,54.67
2022-12-31T11:32:38.153Z,47.10
2022-12-31T11:35:57.253Z,54.83
2022-12-31T11:39:31.508Z,61.20
2022-12-31T11:42:46.723Z,63.03
2022-12-31T11:45:54.107Z,61.73
2022-12-31T11:49:13.369Z,61.45
2022-12-31T11:52:40.625Z,45.53
2022-12-31T11:55:54.841Z,62.42
2022-12-31T11:58:57.584Z,63.50
2022-12-31T12:02:18.674Z,58.03
2022-12-31T12:05:23.816Z,64.40
2022-12-31T12:08:27.395Z,66.78
2022-12-31T12:11:35.784Z,63.42
2022-12-31T12:14:42.495Z,67.72
2022-12-31T12:17:50.457Z,66.00
2022-12-31T12:20:55.778Z,80.88
2022-12-31T12:24:02.278Z,77.93
2022-12-31T12:27:05.049Z,74.72
2022-12-31T12:30:22.374Z,72.60
2022-12-31T12:33:25.779Z,64.63
2022-12-31T12:36:28.318Z,72.90
2022-12-31T12:39:32.851Z,70.88
2022-12-31T12:42:35.613Z,60.08
2022-12-31T12:45:51.721Z,70.65
2022-12-31T12:48:56.706Z,58.53
2022-12-31T12:52:23.653Z,72.43
2022-12-31T12:55:58.198Z,67.13
2022-12-31T12:59:24.490Z,62.20
2022-12-31T13:03:00.267Z,66.97
2022-12-31T13:06:21.709Z,65.00
2022-12-31T13:09:27.074Z,59.25
2022-12-31T13:13:05.320Z,57.13
2022-12-31T13:16:07.974Z,58.08
2022-12-31T13:19:16.506Z,57.28
2022-12-31T13:22:51.042Z,56.67
2022-12-31T13:26:08.169Z,61.30
2022-12-31T13:29:19.464Z,62.17
2022-12-31T13:32:29.526Z,60.63
2022-12-31T13:35:41.012Z,61.90
2022-12-31T13:38:48.954Z,56.57
2022-12-31T13:41:59.285Z,65.90
2022-12-31T13:45:04.849Z,59.28
2022-12-31T13:48:16.412Z,67.07
2022-12-31T13:51:46.739Z,61.17
2022-12-31T13:55:01.930Z,58.77
2022-12-31T13:58:35.849Z,61.97
2022-12-31T14:01:42.550Z,63.25
2022-12-31T14:04:50.672Z,66.65
2022-12-31T14:07:55.311Z,54.55
2022-12-31T14:11:32.233Z,69.80
2022-12-31T14:14:50.375Z,61.75
2022-12-31T14:18:14.762Z,60.53
2022-12-31T14:21:24.385Z,61.92
2022-12-31T14:24:45.967Z,71.15
2022-12-31T14:27:51.266Z,62.40
2022-12-31T14:31:04.220Z,83.75
2022-12-31T14:34:57.687Z,76.13
2022-12-31T14:38:11.182Z,98.63
2022-12-31T14:41:28.681Z,69.75
2022-12-31T14:44:49.880Z,66.53
2022-12-31T14:47:52.258Z,70.45
2022-12-31T14:50:55.152Z,64.05
2022-12-31T14:53:58.392Z,61.03
2022-12-31T14:57:54.329Z,65.47
2022-12-31T15:01:08.655Z,62.57
2022-12-31T15:04:14.925Z,58.20
2022-12-31T15:07:29.757Z,67.88
2022-12-31T15:10:45.714Z,59.97
2022-12-31T15:13:54.176Z,71.43
2022-12-31T15:17:47.291Z,97.27
2022-12-31T15:20:58.954Z,70.45
2022-12-31T15:24:01.560Z,73.05
2022-12-31T15:27:06.237Z,60.58
2022-12-31T15:30:28.662Z,64.07
2022-12-31T15:33:38.081Z,86.57
2022-12-31T15:36:52.590Z,90.72
2022-12-31T15:40:16.878Z,71.90
2022-12-31T15:43:25.110Z,83.35
2022-12-31T15:46:37.661Z,93.03
2022-12-31T15:49:45.091Z,78.03
2022-12-31T15:52:54.936Z,80.53
2022-12-31T15:55:59.125Z,68.57
2022-12-31T15:59:04.533Z,99.32
2022-12-31T16:02:20.289Z,130.98
2022-12-31T16:05:27.265Z,141.80
2022-12-31T16:08:32.049Z,127.57
2022-12-31T16:11:40.580Z,96.30
2022-12-31T16:14:48.568Z,93.03
2022-12-31T16:18:22.744Z,94.65
2022-12-31T16:21:27.696Z,79.33
2022-12-31T16:24:32.304Z,149.70
2022-12-31T16:27:35.352Z,120.35
2022-12-31T16:30:40.155Z,151.52
2022-12-31T16:33:42.618Z,95.47
2022-12-31T16:37:01.309Z,81.23
2022-12-31T16:40:15.239Z,74.57
2022-12-31T16:43:44.177Z,197.50
2022-12-31T16:46:47.487Z,125.60
2022-12-31T16:50:00.230Z,87.75
2022-12-31T16:53:05.460Z,80.37
2022-12-31T16:56:11.723Z,74.95
2022-12-31T16:59:23.277Z,74.60
2022-12-31T17:02:40.264Z,89.40
2022-12-31T17:05:55.757Z,95.55
2022-12-31T17:08:59.559Z,137.83
2022-12-31T17:12:15.704Z,116.22
2022-12-31T17:15:26.935Z,108.43
2022-12-31T17:18:37.152Z,138.32
2022-12-31T17:21:47.381Z,115.13
2022-12-31T17:24:50.283Z,128.13
2022-12-31T17:28:23.535Z,120.80
2022-12-31T17:31:30.614Z,100.05
2022-12-31T17:34:35.117Z,231.68
2022-12-31T17:37:37.603Z,234.13
2022-12-31T17:40:50.772Z,186.70
2022-12-31T17:43:55.564Z,148.15
2022-12-31T17:46:58.142Z,158.98
2022-12-31T17:50:18.801Z,142.25
2022-12-31T17:53:23.147Z,124.25
2022-12-31T17:56:25.611Z,122.27
2022-12-31T17:59:29.878Z,131.00
2022-12-31T18:02:32.446Z,120.00
2022-12-31T18:05:35.049Z,120.15
2022-12-31T18:08:37.498Z,121.32
2022-12-31T18:11:40.442Z,165.23
2022-12-31T18:14:44.880Z,196.15
2022-12-31T18:17:48.889Z,209.38
2022-12-31T18:20:57.415Z,216.05
2022-12-31T18:27:02.407Z,122.43
2022-12-31T18:30:06.449Z,92.72
2022-12-31T18:33:12.528Z,79.93
2022-12-31T18:36:17.280Z,79.50
2022-12-31T18:39:19.995Z,99.03
2022-12-31T18:42:23.417Z,71.97
2022-12-31T18:45:25.849Z,76.53
2022-12-31T18:48:28.415Z,89.70
2022-12-31T18:51:32.471Z,89.90
2022-12-31T18:54:35.043Z,98.47
2022-12-31T18:57:37.439Z,97.80
2022-12-31T19:00:39.991Z,75.55
2022-12-31T19:03:42.498Z,84.28
2022-12-31T19:06:45.614Z,73.00
2022-12-31T19:09:51.455Z,75.82
2022-12-31T19:12:57.169Z,72.53
2022-12-31T19:15:59.909Z,83.78
2022-12-31T19:19:08.334Z,76.60
2022-12-31T19:22:15.112Z,75.35
2022-12-31T19:25:30.939Z,69.35
2022-12-31T19:28:33.430Z,77.87
2022-12-31T19:31:35.851Z,79.63
2022-12-31T19:34:38.451Z,83.20
2022-12-31T19:37:41.755Z,111.95
2022-12-31T19:40:45.081Z,127.72
2022-12-31T19:43:48.020Z,225.37
2022-12-31T19:46:50.473Z,203.90
2022-12-31T19:49:53.042Z,288.42
2022-12-31T19:52:58.493Z,110.65
2022-12-31T19:56:00.919Z,121.75
2022-12-31T19:59:05.726Z,95.67
2022-12-31T20:02:09.895Z,108.68
2022-12-31T20:05:15.201Z,77.97
2022-12-31T20:08:20.300Z,85.97
2022-12-31T20:11:24.108Z,85.22
2022-12-31T20:14:26.492Z,85.87
2022-12-31T20:17:28.982Z,94.00
2022-12-31T20:20:31.359Z,83.55
2022-12-31T20:23:34.807Z,89.18
2022-12-31T20:26:37.174Z,77.22
2022-12-31T20:29:39.743Z,62.40
2022-12-31T20:32:42.307Z,80.43
2022-12-31T20:35:44.833Z,60.05
2022-12-31T20:38:47.320Z,66.30
2022-12-31T20:41:49.897Z,64.50
2022-12-31T20:44:52.265Z,66.33
2022-12-31T20:47:54.737Z,65.22
2022-12-31T20:50:58.257Z,81.20
2022-12-31T20:54:03.233Z,74.00
2022-12-31T20:57:05.617Z,109.85
2022-12-31T21:00:08.850Z,112.90
2022-12-31T21:03:36.826Z,72.72
2022-12-31T21:06:34.715Z,72.63
2022-12-31T21:09:37.230Z,91.57
2022-12-31T21:12:47.928Z,131.40
2022-12-31T21:15:51.701Z,120.30
2022-12-31T21:18:54.351Z,244.80
2022-12-31T21:21:56.809Z,269.17
2022-12-31T21:25:01.197Z,196.20
2022-12-31T21:28:03.741Z,178.35
2022-12-31T21:31:07.718Z,175.47
2022-12-31T21:34:10.247Z,306.27
2022-12-31T21:37:12.618Z,195.43
2022-12-31T21:40:18.451Z,241.88
2022-12-31T21:43:20.981Z,190.13
2022-12-31T21:46:23.489Z,160.97
2022-12-31T21:49:25.947Z,148.50
2022-12-31T21:52:31.652Z,161.68
2022-12-31T21:55:52.335Z,120.57
2022-12-31T21:59:15.421Z,153.32
2022-12-31T22:02:36.684Z,161.20
2022-12-31T22:05:39.913Z,252.32
2022-12-31T22:08:44.394Z,190.25
2022-12-31T22:11:47.713Z,121.88
2022-12-31T22:15:14.538Z,140.57
2022-12-31T22:18:13.819Z,160.30
2022-12-31T22:21:20.012Z,170.35
2022-12-31T22:24:22.982Z,175.82
2022-12-31T22:27:29.318Z,165.15
2022-12-31T22:30:32.942Z,169.23
2022-12-31T22:33:35.439Z,270.83
2022-12-31T22:36:37.886Z,219.38
2022-12-31T22:39:43.657Z,206.57
2022-12-31T22:42:47.303Z,180.48
2022-12-31T22:45:49.677Z,148.50
2022-12-31T22:48:53.483Z,151.57
2022-12-31T22:52:00.735Z,173.23
2022-12-31T22:55:05.787Z,161.00
2022-12-31T22:58:08.258Z,145.05
2022-12-31T23:01:22.522Z,145.18
2022-12-31T23:04:25.038Z,138.43
2022-12-31T23:07:27.442Z,124.03
2022-12-31T23:10:48.837Z,115.25
2022-12-31T23:14:09.520Z,99.72
2022-12-31T23:17:39.172Z,85.05
2022-12-31T23:21:00.036Z,90.70
2022-12-31T23:24:04.426Z,85.28
2022-12-31T23:27:07.473Z,118.78
2022-12-31T23:30:10.752Z,93.28
2022-12-31T23:33:16.981Z,123.07
2022-12-31T23:36:19.489Z,129.83
2022-12-31T23:39:22.058Z,138.27
2022-12-31T23:42:24.744Z,122.65
2022-12-31T23:45:32.802Z,135.48
2022-12-31T23:48:35.951Z,180.52
2022-12-31T23:51:40.201Z,190.37
2022-12-31T23:54:42.739Z,193.30
2022-12-31T23:57:45.186Z,195.63
